sensor_id;sensor_type;location;lat;lon;timestamp;temperature;humidity
28069;DHT22;15382;47.578;8.086;2023-03-14T00:07:55;9.70;99.90
28069;DHT22;15382;47.578;8.086;2023-03-14T00:17:56;9.30;99.90
28069;DHT22;15382;47.578;8.086;2023-03-14T00:27:56;9.50;99.90
28069;DHT22;15382;47.578;8.086;2023-03-14T00:37:57;9.80;99.90
28069;DHT22;15382;47.578;8.086;2023-03-14T00:47:58;9.90;99.90
28069;DHT22;15382;47.578;8.086;2023-03-14T00:57:59;9.70;99.90
28069;DHT22;15382;47.578;8.086;2023-03-14T01:08:00;9.60;99.90
28069;DHT22;15382;47.578;8.086;2023-03-14T01:18:01;9.50;99.90
28069;DHT22;15382;47.578;8.086;2023-03-14T01:28:02;9.40;99.90
28069;DHT22;15382;47.578;8.086;2023-03-14T01:38:04;9.40;99.90
28069;DHT22;15382;47.578;8.086;2023-03-14T01:48:05;9.30;99.90
28069;DHT22;15382;47.578;8.086;2023-03-14T01:58:07;9.20;99.90
28069;DHT22;15382;47.578;8.086;2023-03-14T02:08:18;9.10;99.90
28069;DHT22;15382;47.578;8.086;2023-03-14T02:18:30;9.00;99.90
28069;DHT22;15382;47.578;8.086;2023-03-14T02:28:54;9.00;99.90
28069;DHT22;15382;47.578;8.086;2023-03-14T02:49:02;8.90;99.90
28069;DHT22;15382;47.578;8.086;2023-03-14T02:59:05;8.80;99.90
28069;DHT22;15382;47.578;8.086;2023-03-14T03:09:32;8.70;99.90
28069;DHT22;15382;47.578;8.086;2023-03-14T03:19:33;8.60;99.90
28069;DHT22;15382;47.578;8.086;2023-03-14T03:29:34;8.80;99.90
28069;DHT22;15382;47.578;8.086;2023-03-14T03:39:35;9.00;99.90
28069;DHT22;15382;47.578;8.086;2023-03-14T03:49:36;8.80;99.90
28069;DHT22;15382;47.578;8.086;2023-03-14T03:59:37;8.60;99.90
28069;DHT22;15382;47.578;8.086;2023-03-14T04:09:40;8.60;99.90
28069;DHT22;15382;47.578;8.086;2023-03-14T04:19:51;8.40;99.90
28069;DHT22;15382;47.578;8.086;2023-03-14T04:29:56;8.60;99.90
28069;DHT22;15382;47.578;8.086;2023-03-14T04:40:13;8.80;99.90
28069;DHT22;15382;47.578;8.086;2023-03-14T04:50:14;8.50;99.90
28069;DHT22;15382;47.578;8.086;2023-03-14T05:00:15;8.50;99.90
28069;DHT22;15382;47.578;8.086;2023-03-14T05:10:28;8.70;99.90
28069;DHT22;15382;47.578;8.086;2023-03-14T05:20:51;8.70;99.90
28069;DHT22;15382;47.578;8.086;2023-03-14T05:31:12;8.70;99.90
28069;DHT22;15382;47.578;8.086;2023-03-14T05:41:32;8.70;99.90
28069;DHT22;15382;47.578;8.086;2023-03-14T05:51:53;8.70;99.90
28069;DHT22;15382;47.578;8.086;2023-03-14T06:02:11;8.70;99.90
28069;DHT22;15382;47.578;8.086;2023-03-14T06:12:23;8.60;99.90
28069;DHT22;15382;47.578;8.086;2023-03-14T06:22:24;8.30;99.90
28069;DHT22;15382;47.578;8.086;2023-03-14T06:32:27;7.80;99.90
28069;DHT22;15382;47.578;8.086;2023-03-14T06:42:31;8.00;99.90
28069;DHT22;15382;47.578;8.086;2023-03-14T06:52:32;9.10;99.90
28069;DHT22;15382;47.578;8.086;2023-03-14T07:02:33;9.90;99.90
28069;DHT22;15382;47.578;8.086;2023-03-14T07:12:36;10.50;99.90
28069;DHT22;15382;47.578;8.086;2023-03-14T07:22:37;10.60;99.90
28069;DHT22;15382;47.578;8.086;2023-03-14T07:32:38;10.40;99.90
28069;DHT22;15382;47.578;8.086;2023-03-14T07:42:39;10.30;99.90
28069;DHT22;15382;47.578;8.086;2023-03-14T07:52:50;10.50;99.90
28069;DHT22;15382;47.578;8.086;2023-03-14T08:02:51;10.80;99.90
28069;DHT22;15382;47.578;8.086;2023-03-14T08:12:56;10.90;99.90
28069;DHT22;15382;47.578;8.086;2023-03-14T08:22:59;11.30;99.90
28069;DHT22;15382;47.578;8.086;2023-03-14T08:33:00;11.30;99.90
28069;DHT22;15382;47.578;8.086;2023-03-14T08:43:00;11.20;99.90
28069;DHT22;15382;47.578;8.086;2023-03-14T08:53:01;11.20;99.90
28069;DHT22;15382;47.578;8.086;2023-03-14T09:03:02;11.00;99.90
28069;DHT22;15382;47.578;8.086;2023-03-14T09:13:03;11.10;99.90
28069;DHT22;15382;47.578;8.086;2023-03-14T09:23:04;11.00;99.90
28069;DHT22;15382;47.578;8.086;2023-03-14T09:33:05;11.10;99.90
28069;DHT22;15382;47.578;8.086;2023-03-14T09:43:08;10.80;99.90
28069;DHT22;15382;47.578;8.086;2023-03-14T09:53:16;10.60;99.90
28069;DHT22;15382;47.578;8.086;2023-03-14T10:03:24;10.30;99.90
28069;DHT22;15382;47.578;8.086;2023-03-14T10:13:27;9.60;99.90
28069;DHT22;15382;47.578;8.086;2023-03-14T10:23:31;9.20;99.90
28069;DHT22;15382;47.578;8.086;2023-03-14T10:33:35;9.00;99.90
28069;DHT22;15382;47.578;8.086;2023-03-14T10:43:36;8.60;99.90
28069;DHT22;15382;47.578;8.086;2023-03-14T10:53:48;8.80;99.90
28069;DHT22;15382;47.578;8.086;2023-03-14T11:04:00;8.60;99.90
28069;DHT22;15382;47.578;8.086;2023-03-14T11:14:36;8.30;99.90
28069;DHT22;15382;47.578;8.086;2023-03-14T11:25:03;8.00;99.90
28069;DHT22;15382;47.578;8.086;2023-03-14T11:45:32;7.70;99.90
28069;DHT22;15382;47.578;8.086;2023-03-14T11:55:35;7.60;99.90
28069;DHT22;15382;47.578;8.086;2023-03-14T12:16:33;8.10;99.90
28069;DHT22;15382;47.578;8.086;2023-03-14T12:26:53;8.50;99.90
28069;DHT22;15382;47.578;8.086;2023-03-14T12:37:01;9.00;99.90
28069;DHT22;15382;47.578;8.086;2023-03-14T12:57:25;8.80;99.90
28069;DHT22;15382;47.578;8.086;2023-03-14T13:17:46;7.90;99.90
28069;DHT22;15382;47.578;8.086;2023-03-14T13:27:51;7.90;99.90
28069;DHT22;15382;47.578;8.086;2023-03-14T13:38:00;8.20;99.90
28069;DHT22;15382;47.578;8.086;2023-03-14T13:48:01;8.40;99.90
28069;DHT22;15382;47.578;8.086;2023-03-14T13:58:01;8.10;99.90
28069;DHT22;15382;47.578;8.086;2023-03-14T14:08:03;8.10;99.90
28069;DHT22;15382;47.578;8.086;2023-03-14T14:18:06;8.10;99.90
28069;DHT22;15382;47.578;8.086;2023-03-14T14:38:24;8.20;99.90
28069;DHT22;15382;47.578;8.086;2023-03-14T14:48:27;8.90;99.90
28069;DHT22;15382;47.578;8.086;2023-03-14T14:58:34;9.20;99.90
28069;DHT22;15382;47.578;8.086;2023-03-14T15:08:37;9.10;99.90
28069;DHT22;15382;47.578;8.086;2023-03-14T15:18:38;8.80;99.90
28069;DHT22;15382;47.578;8.086;2023-03-14T15:28:39;8.90;99.90
28069;DHT22;15382;47.578;8.086;2023-03-14T15:38:40;9.40;99.90
28069;DHT22;15382;47.578;8.086;2023-03-14T15:48:41;9.10;99.90
28069;DHT22;15382;47.578;8.086;2023-03-14T15:58:42;8.80;99.90
28069;DHT22;15382;47.578;8.086;2023-03-14T16:08:46;8.70;99.90
28069;DHT22;15382;47.578;8.086;2023-03-14T16:18:47;8.80;99.90
28069;DHT22;15382;47.578;8.086;2023-03-14T16:28:48;8.80;99.90
28069;DHT22;15382;47.578;8.086;2023-03-14T16:38:49;8.80;99.90
28069;DHT22;15382;47.578;8.086;2023-03-14T16:48:50;8.80;99.90
28069;DHT22;15382;47.578;8.086;2023-03-14T16:58:51;7.70;99.90
28069;DHT22;15382;47.578;8.086;2023-03-14T17:08:54;7.00;99.90
28069;DHT22;15382;47.578;8.086;2023-03-14T17:18:55;6.60;99.90
28069;DHT22;15382;47.578;8.086;2023-03-14T17:28:56;6.60;99.90
28069;DHT22;15382;47.578;8.086;2023-03-14T17:38:57;6.40;99.90
28069;DHT22;15382;47.578;8.086;2023-03-14T17:48:57;6.20;99.90
28069;DHT22;15382;47.578;8.086;2023-03-14T17:58:58;6.10;99.90
28069;DHT22;15382;47.578;8.086;2023-03-14T18:08:59;6.10;99.90
28069;DHT22;15382;47.578;8.086;2023-03-14T18:19:00;6.20;99.90
28069;DHT22;15382;47.578;8.086;2023-03-14T18:29:01;6.30;99.90
28069;DHT22;15382;47.578;8.086;2023-03-14T18:39:04;6.20;99.90
28069;DHT22;15382;47.578;8.086;2023-03-14T18:49:07;6.40;99.90
28069;DHT22;15382;47.578;8.086;2023-03-14T18:59:09;5.30;99.90
28069;DHT22;15382;47.578;8.086;2023-03-14T19:09:13;5.30;99.90
28069;DHT22;15382;47.578;8.086;2023-03-14T19:19:14;5.00;99.90
28069;DHT22;15382;47.578;8.086;2023-03-14T19:29:15;5.20;99.90
28069;DHT22;15382;47.578;8.086;2023-03-14T19:39:16;5.40;99.90
28069;DHT22;15382;47.578;8.086;2023-03-14T19:49:16;5.50;99.90
28069;DHT22;15382;47.578;8.086;2023-03-14T19:59:17;5.50;99.90
28069;DHT22;15382;47.578;8.086;2023-03-14T20:09:18;5.40;99.90
28069;DHT22;15382;47.578;8.086;2023-03-14T20:19:19;5.10;99.90
28069;DHT22;15382;47.578;8.086;2023-03-14T20:29:21;5.00;99.90
28069;DHT22;15382;47.578;8.086;2023-03-14T20:39:22;5.00;99.90
28069;DHT22;15382;47.578;8.086;2023-03-14T20:49:24;5.10;99.90
28069;DHT22;15382;47.578;8.086;2023-03-14T20:59:25;5.20;99.90
28069;DHT22;15382;47.578;8.086;2023-03-14T21:09:27;5.40;99.90
28069;DHT22;15382;47.578;8.086;2023-03-14T21:19:28;5.60;99.90
28069;DHT22;15382;47.578;8.086;2023-03-14T21:29:32;5.60;99.90
28069;DHT22;15382;47.578;8.086;2023-03-14T21:39:36;5.20;99.90
28069;DHT22;15382;47.578;8.086;2023-03-14T21:49:37;5.00;99.90
28069;DHT22;15382;47.578;8.086;2023-03-14T21:59:39;5.00;99.90
28069;DHT22;15382;47.578;8.086;2023-03-14T22:09:41;5.10;99.90
28069;DHT22;15382;47.578;8.086;2023-03-14T22:19:42;4.90;99.90
28069;DHT22;15382;47.578;8.086;2023-03-14T22:29:42;4.80;99.90
28069;DHT22;15382;47.578;8.086;2023-03-14T22:39:44;4.70;99.90
28069;DHT22;15382;47.578;8.086;2023-03-14T22:49:45;4.80;99.90
28069;DHT22;15382;47.578;8.086;2023-03-14T22:59:46;4.60;99.90
28069;DHT22;15382;47.578;8.086;2023-03-14T23:09:47;4.40;99.90
28069;DHT22;15382;47.578;8.086;2023-03-14T23:19:47;4.30;99.90
28069;DHT22;15382;47.578;8.086;2023-03-14T23:29:48;4.30;99.90
28069;DHT22;15382;47.578;8.086;2023-03-14T23:39:49;4.30;99.90
28069;DHT22;15382;47.578;8.086;2023-03-14T23:49:50;4.30;99.90
28069;DHT22;15382;47.578;8.086;2023-03-14T23:59:51;4.30;99.90
